Storm Events Database

Event Details

Event Tornado
-- Scale F1
-- Length .8 Miles
-- Width 530 Yards
State INDIANA
County/Area DECATUR
WFO IND
Report Source NWS STORM SURVEY
NCDC Data Source PDS
Begin Date 2006-04-14 21:58:00.0 EST
Begin Lat/Lon 39.55/-86.08333
End Date 2006-04-14 21:59:00.0 EST
End Location BURNEY
End Lat/Lon 39.55/-86.08333
Deaths Direct/Indirect 0/0 (fatality details below, when available...)
Injuries Direct/Indirect 0/0
Property Damage 100K
Crop Damage 0
Episode Narrative A series of large, powerful, and damaging supercells moved through central Indiana on the evening of 14 April 2006.
Event Narrative A weak tornado briefly touched down near Burney in Decatur County. Among the damage was a destroyed garage, and several outbuildings. No injuries were reported.


     ‚Äč



All events for this episode:

Location County/Zone St. Date Time T.Z. Type Mag Dth Inj PrD CrD
Totals: 0 0 865.00K 0.00K
MANSFIELD PARKE CO. IN 04/14/2006 01:30 EST Thunderstorm Wind 55 kts. EG 0 0 5.00K 0.00K
GREENWOOD JOHNSON CO. IN 04/14/2006 04:00 EST Lightning 0 0 100.00K 0.00K
NEW AUGUSTA MARION CO. IN 04/14/2006 16:02 EST Hail 2.00 in. 0 0 0.00K 0.00K
BROWNSBURG HENDRICKS CO. IN 04/14/2006 17:45 EST Hail 1.00 in. 0 0 0.00K 0.00K
BROWNSBURG HENDRICKS CO. IN 04/14/2006 17:49 EST Hail 0.88 in. 0 0 0.00K 0.00K
AUGUSTA MARION CO. IN 04/14/2006 17:55 EST Hail 1.00 in. 0 0 0.00K 0.00K
NORA MARION CO. IN 04/14/2006 17:55 EST Hail 1.50 in. 0 0 0.00K 0.00K
RAVENSWOOD MARION CO. IN 04/14/2006 18:04 EST Hail 1.00 in. 0 0 0.00K 0.00K
GREENFIELD HANCOCK CO. IN 04/14/2006 18:08 EST Hail 1.00 in. 0 0 0.00K 0.00K
MILLERSVILLE MARION CO. IN 04/14/2006 18:08 EST Hail 1.00 in. 0 0 0.00K 0.00K
ALLISONVILLE MARION CO. IN 04/14/2006 18:09 EST Hail 1.00 in. 0 0 0.00K 0.00K
GREENFIELD HANCOCK CO. IN 04/14/2006 18:22 EST Hail 2.75 in. 0 0 5.00K 0.00K
INDIANAPOLIS MARION CO. IN 04/14/2006 18:30 EST Hail 1.75 in. 0 0 30.00K 0.00K
NEW CASTLE HENRY CO. IN 04/14/2006 18:31 EST Hail 0.75 in. 0 0 0.00K 0.00K
MORRISTOWN SHELBY CO. IN 04/14/2006 18:40 EST Hail 1.00 in. 0 0 0.00K 0.00K
CAIRO TIPPECANOE CO. IN 04/14/2006 18:58 EST Tornado F0 0 0 0.00K 0.00K
PINE VLG WARREN CO. IN 04/14/2006 19:00 EST Hail 0.75 in. 0 0 0.00K 0.00K
DELPHI CARROLL CO. IN 04/14/2006 19:02 EST Hail 1.75 in. 0 0 0.00K 0.00K
ATTICA FOUNTAIN CO. IN 04/14/2006 19:05 EST Hail 0.75 in. 0 0 0.00K 0.00K
ST PAUL DECATUR CO. IN 04/14/2006 19:10 EST Hail 0.75 in. 0 0 0.00K 0.00K
DELPHI CARROLL CO. IN 04/14/2006 19:15 EST Hail 1.75 in. 0 0 0.00K 0.00K
WILLIAMSPORT WARREN CO. IN 04/14/2006 19:15 EST Hail 1.00 in. 0 0 0.00K 0.00K
AMERICUS TIPPECANOE CO. IN 04/14/2006 19:18 EST Tornado F1 0 0 30.00K 0.00K
WILLIAMSPORT WARREN CO. IN 04/14/2006 19:20 EST Thunderstorm Wind 59 kts. MG 0 0 0.00K 0.00K
CHATTERTON WARREN CO. IN 04/14/2006 19:22 EST Hail 2.50 in. 0 0 0.00K 0.00K
GREENSBURG DECATUR CO. IN 04/14/2006 19:22 EST Hail 1.00 in. 0 0 0.00K 0.00K
CLARKSBURG DECATUR CO. IN 04/14/2006 19:24 EST Hail 1.75 in. 0 0 0.00K 0.00K
RADNOR CARROLL CO. IN 04/14/2006 19:25 EST Tornado F0 0 0 25.00K 0.00K
GREENSBURG DECATUR CO. IN 04/14/2006 19:27 EST Hail 1.00 in. 0 0 0.00K 0.00K
CENTRAL PORTION FOUNTAIN CO. IN 04/14/2006 19:30 EST Thunderstorm Wind 70 kts. EG 0 0 200.00K 0.00K
LAFAYETTE TIPPECANOE CO. IN 04/14/2006 19:35 EST Hail 0.75 in. 0 0 0.00K 0.00K
WEST LEBANON WARREN CO. IN 04/14/2006 19:35 EST Thunderstorm Wind 60 kts. EG 0 0 100.00K 0.00K
BURLINGTON CARROLL CO. IN 04/14/2006 19:45 EST Hail 1.75 in. 0 0 0.00K 0.00K
LINDEN MONTGOMERY CO. IN 04/14/2006 19:55 EST Hail 1.75 in. 0 0 0.00K 0.00K
CRAWFORDSVILLE MONTGOMERY CO. IN 04/14/2006 20:00 EST Thunderstorm Wind 60 kts. EG 0 0 50.00K 0.00K
LADOGA MONTGOMERY CO. IN 04/14/2006 20:00 EST Thunderstorm Wind 60 kts. EG 0 0 40.00K 0.00K
LINDEN MONTGOMERY CO. IN 04/14/2006 20:02 EST Flood 0 0 0.00K 0.00K
BURNEY DECATUR CO. IN 04/14/2006 20:15 EST Thunderstorm Wind 60 kts. EG 0 0 100.00K 0.00K
ADVANCE BOONE CO. IN 04/14/2006 20:25 EST Hail 1.00 in. 0 0 0.00K 0.00K
NORTH SALEM HENDRICKS CO. IN 04/14/2006 20:26 EST Hail 1.75 in. 0 0 0.00K 0.00K
LEBANON BOONE CO. IN 04/14/2006 20:35 EST Flash Flood 0 0 0.00K 0.00K
CLERMONT MARION CO. IN 04/14/2006 20:40 EST Hail 1.00 in. 0 0 0.00K 0.00K
NORTH SALEM HENDRICKS CO. IN 04/14/2006 20:40 EST Thunderstorm Wind 60 kts. EG 0 0 15.00K 0.00K
AVON HENDRICKS CO. IN 04/14/2006 20:47 EST Hail 1.00 in. 0 0 50.00K 0.00K
BROWNSBURG HENDRICKS CO. IN 04/14/2006 20:47 EST Hail 0.75 in. 0 0 0.00K 0.00K
DANVILLE HENDRICKS CO. IN 04/14/2006 20:53 EST Hail 1.75 in. 0 0 0.00K 0.00K
(IND)INDNPLS INTL AR MARION CO. IN 04/14/2006 21:02 EST Thunderstorm Wind 75 kts. MG 0 0 0.00K 0.00K
DELPHI CARROLL CO. IN 04/14/2006 21:10 EST Hail 1.75 in. 0 0 0.00K 0.00K
GLENNS VLY MARION CO. IN 04/14/2006 21:12 EST Hail 1.00 in. 0 0 0.00K 0.00K
BEECH GROVE MARION CO. IN 04/14/2006 21:15 EST Hail 1.75 in. 0 0 0.00K 0.00K
INDIANAPOLIS MARION CO. IN 04/14/2006 21:15 EST Hail 1.00 in. 0 0 0.00K 0.00K
WEST NEWTON MARION CO. IN 04/14/2006 21:15 EST Hail 1.00 in. 0 0 0.00K 0.00K
INDIANAPOLIS MARION CO. IN 04/14/2006 21:18 EST Hail 1.75 in. 0 0 0.00K 0.00K
SOUTHPORT MARION CO. IN 04/14/2006 21:20 EST Hail 0.75 in. 0 0 0.00K 0.00K
GREENWOOD JOHNSON CO. IN 04/14/2006 21:24 EST Hail 1.50 in. 0 0 0.00K 0.00K
FRANKLIN JOHNSON CO. IN 04/14/2006 21:28 EST Thunderstorm Wind 52 kts. EG 0 0 0.00K 0.00K
GREENWOOD JOHNSON CO. IN 04/14/2006 21:28 EST Hail 1.00 in. 0 0 0.00K 0.00K
WHITELAND JOHNSON CO. IN 04/14/2006 21:29 EST Hail 2.00 in. 0 0 0.00K 0.00K
GEETINGSVILLE CLINTON CO. IN 04/14/2006 21:30 EST Hail 2.00 in. 0 0 15.00K 0.00K
LONDON SHELBY CO. IN 04/14/2006 21:30 EST Hail 0.75 in. 0 0 0.00K 0.00K
ROSSVILLE CLINTON CO. IN 04/14/2006 21:30 EST Hail 1.75 in. 0 0 0.00K 0.00K
NEW WHITELAND JOHNSON CO. IN 04/14/2006 21:32 EST Hail 1.00 in. 0 0 0.00K 0.00K
FAIRLAND SHELBY CO. IN 04/14/2006 21:33 EST Hail 0.75 in. 0 0 0.00K 0.00K
SHELBYVILLE SHELBY CO. IN 04/14/2006 21:44 EST Hail 0.75 in. 0 0 0.00K 0.00K
SHERIDAN HAMILTON CO. IN 04/14/2006 21:45 EST Hail 0.75 in. 0 0 0.00K 0.00K
WHITELAND JOHNSON CO. IN 04/14/2006 21:45 EST Hail 1.75 in. 0 0 0.00K 0.00K
NOBLESVILLE HAMILTON CO. IN 04/14/2006 21:49 EST Hail 1.50 in. 0 0 0.00K 0.00K
SHELBYVILLE SHELBY CO. IN 04/14/2006 21:49 EST Hail 0.75 in. 0 0 0.00K 0.00K
NOBLESVILLE HAMILTON CO. IN 04/14/2006 21:55 EST Hail 1.75 in. 0 0 0.00K 0.00K
BURNEY DECATUR CO. IN 04/14/2006 21:58 EST Tornado F1 0 0 100.00K 0.00K
CARMEL HAMILTON CO. IN 04/14/2006 22:00 EST Hail 0.75 in. 0 0 0.00K 0.00K
CARMEL HAMILTON CO. IN 04/14/2006 22:00 EST Hail 1.25 in. 0 0 0.00K 0.00K
NOBLESVILLE HAMILTON CO. IN 04/14/2006 22:01 EST Hail 0.75 in. 0 0 0.00K 0.00K
FISHERS HAMILTON CO. IN 04/14/2006 22:02 EST Hail 1.00 in. 0 0 0.00K 0.00K
GREENSBURG DECATUR CO. IN 04/14/2006 22:03 EST Hail 1.00 in. 0 0 0.00K 0.00K
CARMEL HAMILTON CO. IN 04/14/2006 22:05 EST Hail 2.00 in. 0 0 0.00K 0.00K
CARMEL HAMILTON CO. IN 04/14/2006 22:05 EST Hail 1.00 in. 0 0 0.00K 0.00K
FISHERS HAMILTON CO. IN 04/14/2006 22:05 EST Hail 0.75 in. 0 0 0.00K 0.00K
FISHERS HAMILTON CO. IN 04/14/2006 22:08 EST Hail 1.00 in. 0 0 0.00K 0.00K
FISHERS HAMILTON CO. IN 04/14/2006 22:12 EST Hail 2.00 in. 0 0 0.00K 0.00K
FISHERS HAMILTON CO. IN 04/14/2006 22:16 EST Hail 1.00 in. 0 0 0.00K 0.00K
NEW PT DECATUR CO. IN 04/14/2006 22:17 EST Hail 0.88 in. 0 0 0.00K 0.00K
Totals: 0 0 865.00K 0.00K